Terminal Aerodrome Forecast
Issued by NWS Blacksburg, VA

Current Version | Previous Version | Graphics & Text | Print | Product List | Glossary On
Versions: 1 2 3 4 5 6 7 8 9 10 11 12 13 14 15 16 17
000
FTUS41 KRNK 162339
TAFBLF
TAF
KBLF 162339Z 1700/1724 28015G24KT 5SM -SHSN OVC015
      TEMPO 1700/1702 1SM -SHSN BKN007
     FM170600 28012G24KT P6SM -SHSN OVC020
      TEMPO 1706/1710 3SM -SHSN SCT007 OVC012
     FM171500 27020G30KT P6SM SCT040=

USA.gov is the U.S. government's official web portal to all federal, state and local government web resources and services.